Flight Track Log - Related Links

Times and Time Zones

All times are in EDT time to prevent confusion due to time zone crossing. See the SKW4841 flight status page for this flight to view local times or setup timezone preferences in your user account.


Time Position Orientation Groundspeed Altitude Reporting Facility
EDT Latitude Longitude Course Direction KTS MPH feet Rate Location/Type
Sun 10:34:03 PM 33.4333 -112.0333 292° West 162 186 1,700  Level Phoenix TRACON
Sun 10:34:47 PM 33.4339 -112.0686 271° West 176 203 2,800 1,543 Climbing Albuquerque Center
Sun 10:35:48 PM 33.4122 -112.1378 249° West 218 251 4,400 1,918 Climbing Albuquerque Center
Sun 10:36:00 PM 33.4345 -112.4114 273° West  Level FlightAware Approximate
Sun 10:36:49 PM 33.3856 -112.2231 249° West 268 308 6,700  Level Albuquerque Center
Sun 10:37:00 PM 33.4401 -112.5484 273° West  Level FlightAware Approximate
Sun 10:37:51 PM 33.3953 -112.3117 278° West 277 319 9,300  Level Albuquerque Center
Sun 10:38:00 PM 33.4455 -112.6854 273° West  Level FlightAware Approximate
Sun 10:38:52 PM 33.4194 -112.4036 288° West 288 331 11,100  Level Albuquerque Center
Sun 10:39:00 PM 33.4518 -112.8221 292° West  Level FlightAware Approximate
Sun 10:39:53 PM 33.4467 -112.5144 286° West 346 398 12,400  Level Albuquerque Center
Sun 10:40:55 PM 33.4511 -112.6450 272° West 368 423 14,500 1,756 Climbing Albuquerque Center
Sun 10:41:56 PM 33.4531 -112.7767 271° West 387 445 16,000 1,820 Climbing Albuquerque Center
Sun 10:42:57 PM 33.4836 -112.9075 286° West 409 471 18,200 2,262 Climbing Albuquerque Center
Sun 10:43:58 PM 33.5278 -113.0306 293° West 406 467 20,600 2,098 Climbing Albuquerque Center
Sun 10:45:00 PM 33.5794 -113.1742 293° West 395 455 22,500 1,463 Climbing Albuquerque Center
Sun 10:46:01 PM 33.6247 -113.3014 293° West 409 471 23,600 1,082 Climbing Albuquerque Center
Sun 10:47:02 PM 33.6703 -113.4292 293° West 423 487 24,700 1,073 Climbing Albuquerque Center
Sun 10:48:04 PM 33.7178 -113.5639 293° West 433 498 25,800 1,073 Climbing Albuquerque Center
Sun 10:49:05 PM 33.7661 -113.7017 293° West 442 509 26,900 1,082 Climbing Albuquerque Center
Sun 10:50:06 PM 33.8150 -113.8408 293° West 449 517 28,000 1,082 Climbing Albuquerque Center
Sun 10:51:07 PM 33.8642 -113.9808 293° West 453 521 29,100 1,073 Climbing Albuquerque Center
Sun 10:52:09 PM 33.9022 -114.1256 288° West 454 522 30,200 1,073 Climbing Albuquerque Center
Sun 10:53:10 PM 33.9192 -114.2764 278° West 451 519 31,300 885 Climbing Albuquerque Center
Sun 10:54:11 PM 33.9450 -114.4550 280° West 453 521 32,000 545 Climbing Albuquerque Center
Sun 10:54:27 PM 33.9500 -114.4919 279° West 457 526 32,000  Level Los Angeles Center
Sun 10:55:28 PM 33.9714 -114.6478 279° West 471 542 32,000  Level Los Angeles Center
Sun 10:56:29 PM 33.9922 -114.8019 279° West 470 541 32,000  Level Los Angeles Center
Sun 10:57:31 PM 34.0106 -114.9553 278° West 464 534 32,000  Level Los Angeles Center
Sun 10:58:33 PM 34.0314 -115.1056 280° West 459 528 32,000  Level Los Angeles Center
Sun 10:59:34 PM 34.0492 -115.2575 278° West 461 531 32,000  Level Los Angeles Center
Sun 11:00:36 PM 34.0728 -115.4397 279° West 461 531 32,000  Level Los Angeles Center
Sun 11:01:37 PM 34.0922 -115.5928 279° West 463 533 32,000  Level Los Angeles Center
Sun 11:02:39 PM 34.1089 -115.7461 278° West 464 534 32,000  Level Los Angeles Center
Sun 11:03:41 PM 34.0939 -115.8969 263° West 461 531 32,000  Level Los Angeles Center
Sun 11:04:42 PM 34.0708 -116.0514 260° West 467 537 32,000 -244 Level Los Angeles Center
Sun 11:05:44 PM 34.0486 -116.2025 260° West 462 532 31,500 -1,366 Descending Los Angeles Center
Sun 11:06:45 PM 34.0275 -116.3406 260° West 430 495 29,200 -2,488 Descending Los Angeles Center
Sun 11:07:47 PM 34.0044 -116.4956 260° West 398 458 26,400 -2,468 Descending Los Angeles Center
Sun 11:08:49 PM 33.9950 -116.6258 265° West 394 453 24,100 -2,244 Descending Los Angeles Center
Sun 11:09:50 PM 33.9839 -116.7517 264° West 383 441 21,800 -2,049 Descending Los Angeles Center
Sun 11:10:52 PM 33.9747 -116.8717 265° West 366 421 19,900 -1,790 Descending Los Angeles Center
Sun 11:11:54 PM 33.9647 -116.9881 264° West 355 409 18,100 -1,415 Descending Los Angeles Center
Sun 11:12:55 PM 33.9550 -117.1022 264° West 347 399 17,000 -779 Descending Los Angeles Center
Sun 11:13:11 PM 33.9500 -117.1500 263° West 340 391 17,100 -86 Climbing Southern California TRACON
Sun 11:14:05 PM 33.9500 -117.2500 270° West 353 406 16,900 -365 Descending Southern California TRACON
Sun 11:15:06 PM 33.9333 -117.3667 260° West 335 386 16,400 -1,417 Descending Southern California TRACON
Sun 11:16:12 PM 33.9667 -117.4833 289° West 332 382 13,900 -1,968 Descending Southern California TRACON
Sun 11:17:11 PM 34.0000 -117.5833 292° West 325 374 12,300 -1,579 Descending Southern California TRACON
Sun 11:18:06 PM 34.0167 -117.6667 284° West 320 368 10,900 -1,488 Descending Southern California TRACON
Sun 11:19:12 PM 34.0167 -117.7833 270° West 283 326 9,300 -1,300 Descending Southern California TRACON
Sun 11:20:06 PM 34.0000 -117.8667 256° West 262 302 8,300 -895 Descending Southern California TRACON
Sun 11:21:06 PM 34.0000 -117.9333 270° West 220 253 7,600 -800 Descending Southern California TRACON
Sun 11:22:06 PM 34.0000 -118.0000 270° West 195 224 6,700 -942 Descending Southern California TRACON
Sun 11:23:07 PM 33.9833 -118.0667 253° West 198 228 5,700 -1,041 Descending Southern California TRACON
Sun 11:24:07 PM 33.9833 -118.1333 270° West 187 215 4,600 -938 Descending Southern California TRACON
Sun 11:25:15 PM 33.9764 -118.1797 260° West 184 212 3,700 -923 Descending Los Angeles Center
Sun 11:26:17 PM 33.9675 -118.2497 261° West 179 206 2,600 -871 Descending Los Angeles Center
Sun 11:27:19 PM 33.9628 -118.3008 264° West 168 193 1,900 -677 Descending Los Angeles Center

Login

Don't have an account? Register now (free) for customized features, flight alerts, and more!